createdAt,value
2023-04-20T00:03:41.294Z,97536.16
2023-04-20T00:08:45.075Z,97539.28
2023-04-20T00:13:48.217Z,97533.59
2023-04-20T00:18:52.758Z,97531.75
2023-04-20T00:23:55.931Z,97519.91
2023-04-20T00:28:59.134Z,97513.06
2023-04-20T00:34:04.305Z,97506.88
2023-04-20T00:39:07.517Z,97512.66
2023-04-20T00:44:14.033Z,97502.75
2023-04-20T00:49:19.198Z,97501.69
2023-04-20T00:54:24.615Z,97500.47
2023-04-20T00:59:28.148Z,97501.94
2023-04-20T01:04:32.910Z,97499.78
2023-04-20T01:09:38.952Z,97501.16
2023-04-20T01:14:43.925Z,97491.09
2023-04-20T01:19:49.288Z,97487.47
2023-04-20T01:24:54.248Z,97481.41
2023-04-20T01:29:57.593Z,97482.97
2023-04-20T01:35:00.894Z,97480.13
2023-04-20T01:40:06.818Z,97473.13
2023-04-20T01:45:10.961Z,97465.09
2023-04-20T01:50:14.265Z,97460.63
2023-04-20T01:55:20.146Z,97465.56
2023-04-20T02:00:23.814Z,97448.28
2023-04-20T02:05:27.198Z,97446.13
2023-04-20T02:10:32.839Z,97453.50
2023-04-20T02:15:36.034Z,97452.03
2023-04-20T02:20:40.202Z,97452.88
2023-04-20T02:25:44.938Z,97455.66
2023-04-20T02:30:48.578Z,97450.09
2023-04-20T02:35:51.714Z,97451.13
2023-04-20T02:40:56.322Z,97447.88
2023-04-20T02:46:00.103Z,97447.69
2023-04-20T02:51:03.567Z,97448.13
2023-04-20T02:56:16.524Z,97441.88
2023-04-20T03:01:23.748Z,97433.88
2023-04-20T03:06:38.630Z,97432.59
2023-04-20T03:11:44.638Z,97434.28
2023-04-20T03:16:55.523Z,97431.53
2023-04-20T03:21:58.861Z,97436.44
2023-04-20T03:27:04.233Z,97438.81
2023-04-20T03:32:15.363Z,97436.94
2023-04-20T03:37:18.877Z,97439.13
2023-04-20T03:42:25.314Z,97438.81
2023-04-20T03:47:28.452Z,97432.50
2023-04-20T03:52:31.914Z,97432.06
2023-04-20T03:57:40.809Z,97432.28
2023-04-20T04:02:44.914Z,97429.66
2023-04-20T04:07:49.617Z,97434.88
2023-04-20T04:12:55.006Z,97431.69
2023-04-20T04:17:59.314Z,97442.25
2023-04-20T04:23:03.883Z,97439.97
2023-04-20T04:28:16.970Z,97445.41
2023-04-20T04:33:29.966Z,97440.84
2023-04-20T04:38:34.622Z,97443.22
2023-04-20T04:43:39.639Z,97448.69
2023-04-20T04:48:56.579Z,97447.28
2023-04-20T04:54:00.989Z,97456.34
2023-04-20T04:59:05.687Z,97449.88
2023-04-20T05:04:09.250Z,97447.59
2023-04-20T05:09:12.910Z,97450.78
2023-04-20T05:14:17.445Z,97459.31
2023-04-20T05:19:20.703Z,97451.56
2023-04-20T05:24:23.990Z,97462.06
2023-04-20T05:29:28.438Z,97460.97
2023-04-20T05:34:32.686Z,97463.59
2023-04-20T05:39:36.103Z,97471.78
2023-04-20T05:44:41.257Z,97476.97
2023-04-20T05:49:46.125Z,97470.47
2023-04-20T05:54:49.825Z,97475.59
2023-04-20T05:59:56.011Z,97481.47
2023-04-20T06:05:01.082Z,97480.25
2023-04-20T06:10:05.489Z,97485.25
2023-04-20T06:15:11.468Z,97488.47
2023-04-20T06:20:14.697Z,97489.06
2023-04-20T06:25:17.965Z,97488.63
2023-04-20T06:30:22.755Z,97495.25
2023-04-20T06:35:26.535Z,97488.56
2023-04-20T06:40:30.597Z,97510.13
2023-04-20T06:45:35.285Z,97511.13
2023-04-20T06:50:38.496Z,97509.09
2023-04-20T06:55:41.853Z,97516.44
2023-04-20T07:00:47.702Z,97515.16
2023-04-20T07:05:51.134Z,97507.06
2023-04-20T07:10:54.371Z,97516.13
2023-04-20T07:15:59.533Z,97509.28
2023-04-20T07:21:02.819Z,97509.50
2023-04-20T07:26:06.257Z,97482.34
2023-04-20T07:31:10.987Z,97494.66
2023-04-20T07:36:14.335Z,97498.59
2023-04-20T07:41:17.738Z,97504.19
2023-04-20T07:46:23.274Z,97496.84
2023-04-20T07:51:26.684Z,97505.00
2023-04-20T07:56:29.959Z,97511.75
2023-04-20T08:01:34.991Z,97511.94
2023-04-20T08:06:38.262Z,97516.84
2023-04-20T08:11:41.808Z,97512.41
2023-04-20T08:16:46.602Z,97507.38
2023-04-20T08:21:50.017Z,97511.38
2023-04-20T08:26:53.278Z,97513.81
2023-04-20T08:31:57.968Z,97506.22
2023-04-20T08:37:01.623Z,97508.53
2023-04-20T08:42:05.018Z,97507.44
2023-04-20T08:47:11.185Z,97501.31
2023-04-20T08:52:14.432Z,97494.16
2023-04-20T08:57:17.995Z,97495.09
2023-04-20T09:02:23.349Z,97499.38
2023-04-20T09:07:26.884Z,97505.94
2023-04-20T09:12:30.200Z,97503.28
2023-04-20T09:17:37.127Z,97504.16
2023-04-20T09:22:43.386Z,97504.78
2023-04-20T09:27:56.986Z,97486.06
2023-04-20T09:33:05.432Z,97492.75
2023-04-20T09:38:08.888Z,97498.09
2023-04-20T09:43:20.146Z,97486.19
2023-04-20T09:48:25.870Z,97476.88
2023-04-20T09:53:29.527Z,97466.66
2023-04-20T09:58:34.768Z,97466.69
2023-04-20T10:03:42.943Z,97460.22
2023-04-20T10:08:46.234Z,97455.34
2023-04-20T10:13:49.352Z,97461.13
2023-04-20T10:19:06.291Z,97441.22
2023-04-20T10:24:10.998Z,97453.78
2023-04-20T10:29:25.526Z,97433.38
2023-04-20T10:34:34.055Z,97433.97
2023-04-20T10:39:38.116Z,97439.19
2023-04-20T10:44:48.940Z,97436.75
2023-04-20T10:49:53.529Z,97434.16
2023-04-20T10:54:56.789Z,97427.47
2023-04-20T11:00:00.002Z,97427.53
2023-04-20T11:05:13.574Z,97434.13
2023-04-20T11:10:17.154Z,97433.50
2023-04-20T11:15:20.407Z,97422.94
2023-04-20T11:20:25.110Z,97421.59
2023-04-20T11:25:28.404Z,97419.63
2023-04-20T11:30:39.702Z,97420.53
2023-04-20T11:35:45.482Z,97419.25
2023-04-20T11:40:48.571Z,97420.31
2023-04-20T11:45:51.960Z,97419.78
2023-04-20T11:50:56.546Z,97414.09
2023-04-20T11:55:59.784Z,97412.28
2023-04-20T12:01:03.029Z,97407.47
2023-04-20T12:06:07.806Z,97412.75
2023-04-20T12:11:11.126Z,97399.75
2023-04-20T12:16:14.398Z,97397.78
2023-04-20T12:21:19.475Z,97392.69
2023-04-20T12:26:31.994Z,97382.47
2023-04-20T12:31:40.562Z,97385.13
2023-04-20T12:36:45.224Z,97369.09
2023-04-20T12:41:48.699Z,97355.97
2023-04-20T12:46:51.839Z,97350.69
2023-04-20T12:51:56.536Z,97346.53
2023-04-20T12:56:59.810Z,97351.09
2023-04-20T13:02:03.842Z,97361.00
2023-04-20T13:07:08.501Z,97367.81
2023-04-20T13:12:11.600Z,97359.63
2023-04-20T13:17:14.778Z,97354.47
2023-04-20T13:22:19.447Z,97358.31
2023-04-20T13:27:22.704Z,97352.19
2023-04-20T13:32:26.048Z,97352.53
2023-04-20T13:37:33.131Z,97344.22
2023-04-20T13:42:36.707Z,97332.50
2023-04-20T13:47:40.826Z,97331.09
2023-04-20T13:52:45.473Z,97329.53
2023-04-20T13:57:48.809Z,97324.47
2023-04-20T14:02:52.591Z,97328.41
2023-04-20T14:08:01.494Z,97339.03
2023-04-20T14:13:04.987Z,97340.00
2023-04-20T14:18:08.611Z,97339.81
2023-04-20T14:23:13.220Z,97341.19
2023-04-20T14:28:17.847Z,97340.16
2023-04-20T14:33:21.034Z,97345.84
2023-04-20T14:38:25.925Z,97334.16
2023-04-20T14:43:31.320Z,97332.25
2023-04-20T14:48:35.702Z,97338.44
2023-04-20T14:53:40.560Z,97330.44
2023-04-20T14:58:43.737Z,97336.88
2023-04-20T15:03:47.332Z,97333.66
2023-04-20T15:08:54.324Z,97329.19
2023-04-20T15:13:57.585Z,97322.81
2023-04-20T15:19:00.777Z,97328.31
2023-04-20T15:24:06.370Z,97313.81
2023-04-20T15:29:09.600Z,97307.97
2023-04-20T15:34:15.537Z,97302.09
2023-04-20T15:39:20.235Z,97311.13
2023-04-20T15:44:23.428Z,97310.97
2023-04-20T15:49:26.690Z,97313.06
2023-04-20T15:54:31.464Z,97310.50
2023-04-20T15:59:35.009Z,97311.66
2023-04-20T16:04:38.428Z,97312.28
2023-04-20T16:09:43.377Z,97316.72
2023-04-20T16:14:47.181Z,97312.44
2023-04-20T16:19:50.634Z,97306.22
2023-04-20T16:24:55.324Z,97322.25
2023-04-20T16:29:58.871Z,97319.72
2023-04-20T16:35:02.183Z,97315.75
2023-04-20T16:40:09.331Z,97316.94
2023-04-20T16:45:12.930Z,97323.16
2023-04-20T16:50:19.865Z,97322.06
2023-04-20T16:55:27.044Z,97329.34
2023-04-20T17:00:32.064Z,97320.53
2023-04-20T17:05:40.336Z,97326.31
2023-04-20T17:10:47.225Z,97323.25
2023-04-20T17:15:50.435Z,97328.84
2023-04-20T17:20:54.716Z,97325.69
2023-04-20T17:25:59.193Z,97319.16
2023-04-20T17:31:02.383Z,97325.59
2023-04-20T17:36:06.232Z,97325.69
2023-04-20T17:41:10.968Z,97320.81
2023-04-20T17:46:14.832Z,97323.06
2023-04-20T17:51:18.565Z,97337.25
2023-04-20T17:56:25.636Z,97330.84
2023-04-20T18:01:29.100Z,97331.91
2023-04-20T18:06:33.728Z,97346.53
2023-04-20T18:11:39.065Z,97348.22
2023-04-20T18:16:42.368Z,97368.03
2023-04-20T18:21:46.192Z,97380.97
2023-04-20T18:26:50.909Z,97369.69
2023-04-20T18:31:56.173Z,97376.03
2023-04-20T18:37:00.115Z,97380.09
2023-04-20T18:42:04.918Z,97377.78
2023-04-20T18:47:08.490Z,97370.75
2023-04-20T18:52:12.608Z,97371.78
2023-04-20T18:57:18.031Z,97359.72
2023-04-20T19:02:22.002Z,97366.22
2023-04-20T19:07:25.618Z,97367.34
2023-04-20T19:12:30.668Z,97367.72
2023-04-20T19:17:34.018Z,97361.75
2023-04-20T19:22:39.953Z,97363.69
2023-04-20T19:27:44.514Z,97361.66
2023-04-20T19:32:49.455Z,97360.03
2023-04-20T19:38:00.720Z,97362.91
2023-04-20T19:43:14.263Z,97353.59
2023-04-20T19:48:17.954Z,97355.31
2023-04-20T19:53:21.513Z,97354.16
2023-04-20T19:58:27.357Z,97359.09
2023-04-20T20:03:32.597Z,97358.66
2023-04-20T20:08:36.532Z,97368.28
2023-04-20T20:13:41.812Z,97351.91
2023-04-20T20:18:45.699Z,97368.63
2023-04-20T20:23:49.172Z,97374.19
2023-04-20T20:28:54.400Z,97366.44
2023-04-20T20:33:57.588Z,97371.84
2023-04-20T20:39:01.094Z,97372.25
2023-04-20T20:44:06.491Z,97369.66
2023-04-20T20:49:10.557Z,97360.91
2023-04-20T20:54:13.988Z,97358.81
2023-04-20T20:59:19.217Z,97360.94
2023-04-20T21:04:22.759Z,97360.00
2023-04-20T21:09:26.754Z,97353.25
2023-04-20T21:14:31.443Z,97351.13
2023-04-20T21:19:34.665Z,97359.38
2023-04-20T21:24:38.176Z,97353.06
2023-04-20T21:29:42.780Z,97345.41
2023-04-20T21:34:46.030Z,97344.28
2023-04-20T21:39:50.614Z,97340.88
2023-04-20T21:44:55.269Z,97337.34
2023-04-20T21:49:58.590Z,97341.56
2023-04-20T21:55:02.237Z,97340.00
2023-04-20T22:00:10.393Z,97341.94
2023-04-20T22:05:21.904Z,97329.75
2023-04-20T22:10:25.389Z,97327.81
2023-04-20T22:15:30.352Z,97322.84
2023-04-20T22:20:33.498Z,97328.28
2023-04-20T22:25:36.836Z,97328.59
2023-04-20T22:30:42.561Z,97328.81
2023-04-20T22:35:45.923Z,97328.13
2023-04-20T22:40:49.135Z,97322.13
2023-04-20T22:45:53.879Z,97329.66
2023-04-20T22:51:00.771Z,97323.97
2023-04-20T22:56:05.945Z,97328.59
2023-04-20T23:01:10.801Z,97324.38
2023-04-20T23:06:18.733Z,97325.16
2023-04-20T23:11:22.358Z,97318.25
2023-04-20T23:16:28.148Z,97327.25
2023-04-20T23:21:31.360Z,97315.91
2023-04-20T23:26:34.604Z,97309.50
2023-04-20T23:31:39.285Z,97304.44
2023-04-20T23:36:42.423Z,97289.72
2023-04-20T23:41:45.615Z,97293.72
2023-04-20T23:46:50.595Z,97284.56
2023-04-20T23:51:53.710Z,97287.78
2023-04-20T23:56:57.068Z,97281.59
